createdAt,value
2022-10-28T00:01:49.949Z,84.48
2022-10-28T00:04:52.573Z,84.83
2022-10-28T00:07:55.036Z,84.64
2022-10-28T00:11:09.123Z,84.79
2022-10-28T00:14:11.525Z,85.03
2022-10-28T00:17:14.090Z,84.77
2022-10-28T00:20:16.491Z,84.72
2022-10-28T00:23:18.939Z,84.83
2022-10-28T00:26:25.368Z,84.73
2022-10-28T00:29:27.950Z,84.93
2022-10-28T00:32:31.124Z,84.99
2022-10-28T00:35:33.970Z,84.87
2022-10-28T00:38:36.280Z,85.14
2022-10-28T00:41:41.273Z,85.16
2022-10-28T00:44:49.491Z,85.30
2022-10-28T00:48:02.093Z,85.29
2022-10-28T00:51:05.354Z,85.31
2022-10-28T00:54:08.487Z,85.34
2022-10-28T00:57:17.246Z,85.22
2022-10-28T01:00:19.909Z,85.32
2022-10-28T01:03:22.882Z,85.36
2022-10-28T01:06:27.807Z,85.45
2022-10-28T01:09:30.051Z,85.18
2022-10-28T01:12:57.632Z,85.20
2022-10-28T01:16:10.996Z,85.34
2022-10-28T01:19:55.569Z,85.43
2022-10-28T01:22:57.791Z,85.39
2022-10-28T01:26:09.107Z,85.38
2022-10-28T01:29:29.798Z,85.62
2022-10-28T01:32:46.823Z,85.48
2022-10-28T01:36:02.886Z,85.34
2022-10-28T01:39:23.650Z,85.16
2022-10-28T01:42:30.880Z,85.43
2022-10-28T01:46:02.301Z,85.54
2022-10-28T01:49:19.278Z,85.50
2022-10-28T01:52:25.940Z,85.46
2022-10-28T01:55:33.148Z,85.68
2022-10-28T01:58:38.979Z,85.92
2022-10-28T02:01:41.901Z,85.70
2022-10-28T02:04:44.879Z,86.12
2022-10-28T02:07:48.467Z,86.05
2022-10-28T02:11:09.807Z,85.87
2022-10-28T02:14:40.655Z,85.96
2022-10-28T02:18:02.060Z,86.18
2022-10-28T02:21:18.296Z,86.21
2022-10-28T02:24:33.154Z,85.98
2022-10-28T02:27:59.132Z,85.93
2022-10-28T02:31:11.787Z,85.71
2022-10-28T02:34:19.929Z,85.67
2022-10-28T02:37:28.544Z,85.58
2022-10-28T02:40:34.075Z,85.61
2022-10-28T02:43:40.522Z,85.61
2022-10-28T02:46:47.097Z,85.71
2022-10-28T02:49:56.624Z,85.83
2022-10-28T02:53:01.807Z,85.78
2022-10-28T02:56:08.397Z,85.73
2022-10-28T02:59:12.515Z,85.82
2022-10-28T03:02:15.063Z,85.94
2022-10-28T03:05:17.896Z,86.05
2022-10-28T03:08:20.398Z,85.99
2022-10-28T03:11:22.725Z,85.84
2022-10-28T03:14:25.274Z,86.07
2022-10-28T03:17:27.643Z,86.17
2022-10-28T03:20:30.188Z,86.32
2022-10-28T03:23:32.441Z,86.50
2022-10-28T03:26:34.921Z,86.30
2022-10-28T03:29:37.901Z,86.24
2022-10-28T03:32:42.891Z,86.12
2022-10-28T03:35:45.120Z,86.06
2022-10-28T03:38:47.715Z,86.22
2022-10-28T03:41:50.212Z,86.34
2022-10-28T03:44:52.796Z,86.42
2022-10-28T03:47:55.355Z,86.24
2022-10-28T03:50:57.939Z,86.13
2022-10-28T03:54:00.229Z,86.08
2022-10-28T03:57:02.804Z,86.23
2022-10-28T04:00:06.524Z,86.16
2022-10-28T04:03:13.803Z,86.00
2022-10-28T04:06:17.069Z,86.21
2022-10-28T04:09:19.324Z,86.29
2022-10-28T04:12:21.867Z,86.40
2022-10-28T04:15:24.170Z,86.43
2022-10-28T04:18:26.691Z,86.59
2022-10-28T04:21:28.944Z,86.75
2022-10-28T04:24:31.449Z,87.16
2022-10-28T04:27:33.708Z,87.91
2022-10-28T04:30:36.335Z,87.73
2022-10-28T04:33:38.649Z,87.78
2022-10-28T04:36:41.168Z,87.64
2022-10-28T04:39:43.391Z,87.82
2022-10-28T04:42:45.887Z,88.00
2022-10-28T04:45:48.103Z,87.90
2022-10-28T04:48:50.695Z,88.18
2022-10-28T04:51:52.943Z,88.32
2022-10-28T04:54:55.511Z,88.37
2022-10-28T04:58:00.237Z,88.46
2022-10-28T05:01:09.832Z,88.61
2022-10-28T05:04:12.207Z,88.73
2022-10-28T05:07:15.935Z,88.91
2022-10-28T05:10:19.897Z,88.96
2022-10-28T05:13:22.541Z,88.94
2022-10-28T05:16:24.948Z,89.22
2022-10-28T05:19:27.680Z,89.21
2022-10-28T05:22:29.986Z,89.22
2022-10-28T05:25:32.450Z,89.79
2022-10-28T05:28:35.008Z,89.98
2022-10-28T05:31:37.596Z,90.43
2022-10-28T05:34:40.112Z,90.74
2022-10-28T05:37:43.777Z,90.68
2022-10-28T05:40:46.156Z,90.32
2022-10-28T05:43:48.733Z,90.41
2022-10-28T05:46:50.932Z,90.81
2022-10-28T05:49:53.449Z,90.99
2022-10-28T05:52:57.453Z,91.19
2022-10-28T05:55:59.992Z,91.25
2022-10-28T05:59:02.188Z,91.30
2022-10-28T06:02:04.763Z,91.28
2022-10-28T06:05:08.075Z,91.28
2022-10-28T06:08:12.442Z,90.96
2022-10-28T06:11:13.423Z,90.91
2022-10-28T06:14:15.937Z,91.06
2022-10-28T06:17:18.470Z,90.88
2022-10-28T06:20:20.748Z,90.64
2022-10-28T06:23:25.063Z,90.65
2022-10-28T06:26:27.346Z,90.85
2022-10-28T06:29:30.749Z,90.78
2022-10-28T06:32:33.128Z,90.69
2022-10-28T06:35:35.669Z,90.42
2022-10-28T06:38:37.990Z,90.72
2022-10-28T06:41:40.638Z,90.59
2022-10-28T06:44:42.966Z,90.57
2022-10-28T06:47:47.187Z,90.74
2022-10-28T06:50:49.722Z,90.64
2022-10-28T06:53:53.477Z,90.49
2022-10-28T06:56:55.874Z,90.37
2022-10-28T06:59:58.486Z,90.19
2022-10-28T07:03:01.050Z,90.02
2022-10-28T07:06:04.209Z,90.08
2022-10-28T07:09:07.510Z,89.89
2022-10-28T07:12:10.166Z,89.78
2022-10-28T07:15:12.495Z,89.69
2022-10-28T07:18:15.030Z,89.44
2022-10-28T07:21:18.393Z,90.20
2022-10-28T07:24:20.966Z,90.23
2022-10-28T07:27:23.263Z,89.95
2022-10-28T07:30:26.997Z,89.57
2022-10-28T07:33:29.466Z,89.69
2022-10-28T07:36:32.254Z,89.66
2022-10-28T07:39:34.559Z,89.82
2022-10-28T07:42:37.307Z,89.46
2022-10-28T07:45:40.094Z,89.82
2022-10-28T07:48:42.875Z,90.30
2022-10-28T07:51:45.320Z,89.96
2022-10-28T07:54:47.904Z,90.04
2022-10-28T07:57:50.164Z,89.75
2022-10-28T08:00:53.239Z,89.46
2022-10-28T08:03:55.796Z,89.50
2022-10-28T08:06:58.290Z,89.71
2022-10-28T08:10:00.901Z,89.37
2022-10-28T08:13:03.225Z,89.39
2022-10-28T08:16:05.996Z,89.15
2022-10-28T08:19:08.366Z,88.88
2022-10-28T08:22:10.963Z,88.51
2022-10-28T08:25:13.347Z,88.42
2022-10-28T08:28:16.122Z,88.02
2022-10-28T08:31:18.353Z,87.77
2022-10-28T08:37:28.232Z,88.00
2022-10-28T08:40:42.606Z,87.82
2022-10-28T08:44:04.347Z,87.96
2022-10-28T08:47:22.209Z,87.98
2022-10-28T08:50:31.743Z,87.76
2022-10-28T08:53:57.078Z,87.57
2022-10-28T08:57:02.615Z,87.07
2022-10-28T09:00:07.999Z,87.52
2022-10-28T09:03:13.315Z,87.34
2022-10-28T09:06:16.102Z,86.92
2022-10-28T09:09:21.252Z,86.67
2022-10-28T09:12:45.118Z,86.60
2022-10-28T09:16:05.468Z,86.43
2022-10-28T09:19:43.528Z,86.25
2022-10-28T09:23:16.356Z,86.52
2022-10-28T09:26:48.153Z,86.55
2022-10-28T09:30:16.605Z,86.32
2022-10-28T09:33:42.866Z,86.03
2022-10-28T09:37:09.888Z,86.43
2022-10-28T09:40:28.356Z,86.72
2022-10-28T09:43:35.994Z,86.61
2022-10-28T09:46:40.102Z,86.57
2022-10-28T09:49:43.689Z,86.09
2022-10-28T09:53:05.050Z,85.96
2022-10-28T09:59:16.463Z,87.36
2022-10-28T10:02:29.458Z,86.49
2022-10-28T10:05:37.882Z,86.35
2022-10-28T10:08:41.734Z,85.98
2022-10-28T10:11:46.778Z,85.92
2022-10-28T10:14:52.017Z,85.45
2022-10-28T10:18:00.230Z,85.57
2022-10-28T10:21:02.789Z,85.56
2022-10-28T10:24:25.411Z,85.45
2022-10-28T10:27:30.447Z,85.14
2022-10-28T10:30:38.096Z,85.24
2022-10-28T10:33:41.021Z,85.02
2022-10-28T10:36:50.968Z,85.34
2022-10-28T10:40:16.471Z,85.05
2022-10-28T10:43:19.018Z,85.22
2022-10-28T10:46:21.794Z,85.14
2022-10-28T10:49:24.408Z,85.41
2022-10-28T10:52:28.231Z,85.12
2022-10-28T10:55:38.209Z,84.92
2022-10-28T10:58:51.685Z,84.73
2022-10-28T11:01:56.273Z,84.58
2022-10-28T11:05:02.569Z,84.65
2022-10-28T11:08:07.766Z,84.51
2022-10-28T11:11:21.318Z,84.62
2022-10-28T11:14:30.219Z,84.87
2022-10-28T11:17:34.583Z,85.05
2022-10-28T11:20:51.355Z,84.61
2022-10-28T11:24:25.752Z,84.72
2022-10-28T11:27:40.533Z,84.38
2022-10-28T11:31:18.313Z,84.95
2022-10-28T11:34:26.645Z,85.15
2022-10-28T11:37:40.806Z,84.83
2022-10-28T11:41:17.414Z,84.56
2022-10-28T11:44:45.892Z,84.79
2022-10-28T11:48:07.246Z,84.37
2022-10-28T11:51:20.116Z,84.18
2022-10-28T11:54:55.076Z,84.46
2022-10-28T11:58:38.995Z,84.54
2022-10-28T12:01:57.534Z,85.16
2022-10-28T12:05:10.637Z,84.76
2022-10-28T12:08:31.374Z,84.93
2022-10-28T12:12:05.806Z,85.23
2022-10-28T12:15:31.969Z,84.68
2022-10-28T12:18:59.212Z,84.51
2022-10-28T12:22:09.964Z,84.66
2022-10-28T12:25:23.473Z,85.12
2022-10-28T12:28:36.472Z,84.76
2022-10-28T12:31:44.984Z,84.63
2022-10-28T12:35:02.986Z,84.45
2022-10-28T12:38:17.221Z,84.20
2022-10-28T12:41:25.497Z,84.15
2022-10-28T12:44:28.777Z,84.27
2022-10-28T12:47:43.075Z,84.71
2022-10-28T12:50:54.222Z,84.58
2022-10-28T12:54:03.572Z,84.50
2022-10-28T12:57:19.415Z,84.94
2022-10-28T13:00:32.002Z,85.35
2022-10-28T13:03:35.780Z,85.18
2022-10-28T13:06:47.444Z,85.66
2022-10-28T13:10:00.192Z,85.95
2022-10-28T13:13:02.463Z,85.65
2022-10-28T13:16:22.064Z,86.12
2022-10-28T13:19:42.564Z,85.65
2022-10-28T13:23:03.859Z,85.87
2022-10-28T13:26:24.249Z,85.78
2022-10-28T13:29:30.990Z,86.00
2022-10-28T13:32:38.698Z,86.16
2022-10-28T13:35:42.262Z,86.22
2022-10-28T13:38:54.662Z,86.29
2022-10-28T13:42:12.525Z,85.92
2022-10-28T13:45:56.607Z,85.91
2022-10-28T13:49:26.249Z,85.93
2022-10-28T13:52:28.579Z,86.31
2022-10-28T13:55:49.093Z,86.34
2022-10-28T13:58:55.022Z,86.26
2022-10-28T14:02:21.086Z,86.54
2022-10-28T14:05:36.645Z,87.06
2022-10-28T14:08:41.466Z,86.28
2022-10-28T14:11:44.118Z,86.25
2022-10-28T14:14:58.748Z,86.69
2022-10-28T14:18:42.561Z,87.54
2022-10-28T14:22:02.613Z,87.40
2022-10-28T14:25:40.837Z,87.00
2022-10-28T14:28:43.011Z,87.29
2022-10-28T14:31:45.728Z,87.44
2022-10-28T14:34:48.372Z,87.67
2022-10-28T14:37:50.876Z,87.36
2022-10-28T14:41:15.844Z,87.26
2022-10-28T14:44:39.349Z,87.39
2022-10-28T14:47:54.671Z,88.52
2022-10-28T14:50:58.768Z,88.16
2022-10-28T14:54:02.506Z,87.85
2022-10-28T14:57:05.722Z,88.89
2022-10-28T15:00:16.670Z,88.50
2022-10-28T15:03:19.353Z,88.34
2022-10-28T15:06:30.221Z,88.14
2022-10-28T15:09:34.968Z,88.79
2022-10-28T15:12:37.312Z,89.23
2022-10-28T15:15:50.790Z,89.00
2022-10-28T15:18:54.337Z,88.86
2022-10-28T15:22:06.722Z,89.07
2022-10-28T15:25:16.491Z,89.14
2022-10-28T15:28:19.097Z,89.82
2022-10-28T15:31:21.548Z,90.03
2022-10-28T15:34:24.123Z,89.95
2022-10-28T15:37:29.683Z,89.88
2022-10-28T15:40:34.016Z,90.30
2022-10-28T15:43:37.301Z,90.13
2022-10-28T15:46:39.945Z,89.54
2022-10-28T15:49:43.459Z,89.17
2022-10-28T15:52:53.565Z,89.14
2022-10-28T15:56:17.313Z,89.37
2022-10-28T15:59:22.261Z,89.46
2022-10-28T16:02:42.018Z,89.79
2022-10-28T16:05:46.405Z,89.40
2022-10-28T16:09:22.014Z,89.96
2022-10-28T16:12:26.646Z,90.67
2022-10-28T16:15:29.186Z,90.96
2022-10-28T16:18:35.004Z,91.24
2022-10-28T16:21:38.673Z,91.04
2022-10-28T16:24:42.291Z,90.87
2022-10-28T16:27:44.584Z,90.69
2022-10-28T16:30:47.936Z,90.56
2022-10-28T16:33:50.474Z,90.64
2022-10-28T16:36:53.032Z,90.80
2022-10-28T16:39:56.137Z,90.94
2022-10-28T16:42:58.744Z,91.02
2022-10-28T16:46:01.157Z,91.18
2022-10-28T16:49:04.134Z,91.11
2022-10-28T16:52:14.605Z,91.08
2022-10-28T16:55:17.322Z,90.72
2022-10-28T16:58:23.160Z,90.71
2022-10-28T17:01:28.718Z,90.32
2022-10-28T17:04:31.159Z,90.63
2022-10-28T17:07:34.304Z,91.11
2022-10-28T17:10:36.580Z,91.37
2022-10-28T17:13:39.084Z,91.22
2022-10-28T17:16:43.308Z,90.68
2022-10-28T17:19:46.928Z,90.39
2022-10-28T17:22:49.349Z,90.39
2022-10-28T17:26:02.941Z,90.32
2022-10-28T17:29:05.453Z,90.32
2022-10-28T17:32:11.169Z,90.52
2022-10-28T17:35:13.773Z,90.48
2022-10-28T17:38:16.376Z,90.71
2022-10-28T17:41:19.330Z,90.90
2022-10-28T17:44:22.178Z,90.80
2022-10-28T17:47:24.588Z,90.79
2022-10-28T17:50:27.131Z,90.70
2022-10-28T17:53:30.052Z,91.37
2022-10-28T17:56:36.247Z,91.19
2022-10-28T17:59:38.769Z,90.76
2022-10-28T18:02:41.393Z,90.75
2022-10-28T18:05:44.410Z,90.86
2022-10-28T18:08:46.905Z,91.24
2022-10-28T18:11:50.541Z,91.19
2022-10-28T18:14:52.895Z,90.90
2022-10-28T18:17:55.709Z,90.70
2022-10-28T18:20:58.190Z,90.61
2022-10-28T18:24:04.034Z,90.52
2022-10-28T18:27:06.554Z,90.41
2022-10-28T18:30:09.621Z,90.33
2022-10-28T18:33:12.465Z,90.46
2022-10-28T18:36:23.786Z,90.49
2022-10-28T18:39:26.164Z,90.34
2022-10-28T18:42:29.299Z,90.20
2022-10-28T18:45:32.072Z,91.30
2022-10-28T18:48:35.160Z,91.44
2022-10-28T18:51:38.056Z,91.22
2022-10-28T18:54:40.707Z,91.06
2022-10-28T18:57:42.992Z,90.77
2022-10-28T19:00:45.981Z,90.63
2022-10-28T19:03:55.534Z,90.82
2022-10-28T19:06:58.362Z,90.61
2022-10-28T19:10:01.065Z,90.65
2022-10-28T19:13:03.843Z,90.42
2022-10-28T19:16:06.929Z,91.21
2022-10-28T19:19:09.629Z,91.37
2022-10-28T19:22:12.786Z,91.39
2022-10-28T19:25:15.559Z,91.68
2022-10-28T19:28:17.945Z,91.50
2022-10-28T19:31:22.937Z,91.12
2022-10-28T19:34:27.190Z,90.81
2022-10-28T19:37:29.940Z,90.60
2022-10-28T19:40:32.157Z,90.55
2022-10-28T19:43:35.960Z,90.91
2022-10-28T19:46:38.824Z,90.88
2022-10-28T19:49:44.280Z,90.38
2022-10-28T19:52:47.185Z,90.29
2022-10-28T19:55:49.725Z,90.95
2022-10-28T19:58:54.732Z,91.18
2022-10-28T20:01:57.416Z,91.34
2022-10-28T20:05:00.029Z,90.99
2022-10-28T20:08:02.282Z,90.94
2022-10-28T20:11:07.590Z,91.38
2022-10-28T20:14:11.618Z,91.47
2022-10-28T20:17:15.338Z,91.39
2022-10-28T20:20:17.592Z,91.35
2022-10-28T20:23:20.097Z,91.37
2022-10-28T20:26:27.968Z,91.03
2022-10-28T20:29:30.470Z,91.19
2022-10-28T20:32:32.736Z,91.19
2022-10-28T20:35:35.871Z,91.23
2022-10-28T20:38:38.122Z,91.48
2022-10-28T20:41:42.854Z,92.03
2022-10-28T20:44:45.214Z,91.83
2022-10-28T20:47:47.742Z,91.76
2022-10-28T20:50:58.741Z,91.31
2022-10-28T20:54:02.053Z,90.79
2022-10-28T20:57:04.343Z,90.56
2022-10-28T21:00:08.044Z,90.27
2022-10-28T21:03:11.136Z,90.09
2022-10-28T21:06:15.568Z,90.39
2022-10-28T21:09:18.163Z,90.53
2022-10-28T21:12:20.695Z,90.45
2022-10-28T21:15:22.935Z,90.70
2022-10-28T21:18:26.073Z,90.58
2022-10-28T21:21:28.781Z,90.27
2022-10-28T21:24:31.260Z,90.47
2022-10-28T21:27:34.299Z,90.45
2022-10-28T21:30:36.840Z,90.29
2022-10-28T21:33:40.228Z,90.07
2022-10-28T21:36:42.773Z,89.87
2022-10-28T21:39:48.610Z,89.61
2022-10-28T21:42:51.189Z,89.66
2022-10-28T21:45:53.463Z,90.43
2022-10-28T21:48:55.977Z,90.75
2022-10-28T21:51:58.223Z,90.66
2022-10-28T21:55:06.001Z,91.00
2022-10-28T21:58:17.514Z,90.79
2022-10-28T22:01:22.946Z,90.78
2022-10-28T22:04:25.803Z,90.87
2022-10-28T22:07:28.077Z,91.26
2022-10-28T22:10:30.965Z,91.32
2022-10-28T22:13:34.720Z,91.27
2022-10-28T22:16:37.309Z,91.03
2022-10-28T22:19:39.553Z,90.93
2022-10-28T22:22:42.085Z,90.83
2022-10-28T22:25:44.388Z,90.81
2022-10-28T22:28:47.197Z,90.58
2022-10-28T22:31:49.543Z,90.78
2022-10-28T22:34:52.141Z,91.05
2022-10-28T22:37:54.433Z,90.90
2022-10-28T22:41:06.012Z,90.94
2022-10-28T22:44:08.226Z,90.66
2022-10-28T22:47:10.749Z,90.65
2022-10-28T22:50:12.988Z,90.74
2022-10-28T22:53:15.596Z,90.85
2022-10-28T22:56:22.816Z,90.98
2022-10-28T22:59:25.582Z,91.18
2022-10-28T23:02:27.941Z,91.11
2022-10-28T23:05:30.580Z,91.21
2022-10-28T23:08:33.671Z,91.44
2022-10-28T23:11:36.696Z,91.73
2022-10-28T23:14:38.954Z,91.76
2022-10-28T23:17:41.500Z,92.23
2022-10-28T23:20:43.737Z,92.54
2022-10-28T23:23:51.145Z,92.50
2022-10-28T23:30:03.762Z,93.05
2022-10-28T23:33:05.961Z,93.11
2022-10-28T23:36:11.416Z,93.06
2022-10-28T23:39:13.621Z,92.96
2022-10-28T23:42:16.144Z,93.21
2022-10-28T23:45:18.379Z,93.21
2022-10-28T23:48:21.372Z,92.66
2022-10-28T23:51:23.593Z,92.42
2022-10-28T23:54:26.119Z,92.25
2022-10-28T23:57:28.317Z,91.78
